createdAt,value
2023-03-10T00:00:08.884Z,1.06
2023-03-10T00:05:45.242Z,1.02
2023-03-10T00:10:48.507Z,0.96
2023-03-10T00:16:04.128Z,0.96
2023-03-10T00:21:07.460Z,0.97
2023-03-10T00:26:14.063Z,0.99
2023-03-10T00:31:20.749Z,0.99
2023-03-10T00:36:27.657Z,1.00
2023-03-10T00:41:33.642Z,0.96
2023-03-10T00:46:40.690Z,0.90
2023-03-10T00:51:44.211Z,0.85
2023-03-10T00:57:00.364Z,0.89
2023-03-10T01:02:06.258Z,0.94
2023-03-10T01:07:13.072Z,0.93
2023-03-10T01:12:16.561Z,0.98
2023-03-10T01:17:39.990Z,1.01
2023-03-10T01:22:43.996Z,0.94
2023-03-10T01:27:47.592Z,0.88
2023-03-10T01:33:00.304Z,0.85
2023-03-10T01:38:04.734Z,0.82
2023-03-10T01:43:43.934Z,0.84
2023-03-10T01:49:17.475Z,0.86
2023-03-10T01:54:44.354Z,0.93
2023-03-10T01:59:48.852Z,1.00
2023-03-10T02:05:14.065Z,0.97
2023-03-10T02:10:17.817Z,0.91
2023-03-10T02:15:25.314Z,0.86
2023-03-10T02:21:30.816Z,0.82
2023-03-10T02:27:11.158Z,0.80
2023-03-10T02:32:15.567Z,0.80
2023-03-10T02:37:37.290Z,0.82
2023-03-10T02:42:41.174Z,0.88
2023-03-10T02:47:57.560Z,0.88
2023-03-10T02:53:27.481Z,0.88
2023-03-10T02:58:55.889Z,0.84
2023-03-10T03:04:22.812Z,0.80
2023-03-10T03:09:26.856Z,0.78
2023-03-10T03:14:59.664Z,0.80
2023-03-10T03:20:21.526Z,0.84
2023-03-10T03:26:08.413Z,0.91
2023-03-10T03:31:25.711Z,0.94
2023-03-10T03:36:37.606Z,0.94
2023-03-10T03:41:41.565Z,0.94
2023-03-10T03:46:45.120Z,0.93
2023-03-10T03:51:52.599Z,0.86
2023-03-10T03:56:57.761Z,0.87
2023-03-10T04:02:21.533Z,0.88
2023-03-10T04:07:30.105Z,0.94
2023-03-10T04:12:34.389Z,1.01
2023-03-10T04:17:38.874Z,1.09
2023-03-10T04:22:42.791Z,1.13
2023-03-10T04:27:46.686Z,1.15
2023-03-10T04:32:50.255Z,1.13
2023-03-10T04:37:55.056Z,1.13
2023-03-10T04:43:03.679Z,1.16
2023-03-10T04:48:18.086Z,1.20
2023-03-10T04:53:21.523Z,1.28
2023-03-10T04:58:38.533Z,1.35
2023-03-10T05:04:04.007Z,1.42
2023-03-10T05:09:07.897Z,1.48
2023-03-10T05:14:31.887Z,1.48
2023-03-10T05:19:47.349Z,1.45
2023-03-10T05:24:51.044Z,1.42
2023-03-10T05:29:58.773Z,1.47
2023-03-10T05:35:15.850Z,1.56
2023-03-10T05:40:22.601Z,1.64
2023-03-10T05:45:29.321Z,1.74
2023-03-10T05:50:37.902Z,1.83
2023-03-10T05:55:44.228Z,1.88
2023-03-10T06:00:56.316Z,1.89
2023-03-10T06:06:12.539Z,1.92
2023-03-10T06:11:15.989Z,1.98
2023-03-10T06:16:22.086Z,2.06
2023-03-10T06:21:26.305Z,2.14
2023-03-10T06:26:29.841Z,2.19
2023-03-10T06:31:36.074Z,2.23
2023-03-10T06:36:40.491Z,2.25
2023-03-10T06:41:43.806Z,2.25
2023-03-10T06:46:47.107Z,2.27
2023-03-10T06:51:50.627Z,2.33
2023-03-10T06:57:00.057Z,2.44
2023-03-10T07:02:03.863Z,2.60
2023-03-10T07:07:07.373Z,2.79
2023-03-10T07:12:10.826Z,2.92
2023-03-10T07:17:25.709Z,2.95
2023-03-10T07:22:54.340Z,2.96
2023-03-10T07:28:08.603Z,2.95
2023-03-10T07:33:12.131Z,3.03
2023-03-10T07:38:26.611Z,3.11
2023-03-10T07:43:30.153Z,3.22
2023-03-10T07:48:44.870Z,3.31
2023-03-10T07:53:48.134Z,3.40
2023-03-10T07:58:51.516Z,3.43
2023-03-10T08:03:57.521Z,3.48
2023-03-10T08:09:42.066Z,3.61
2023-03-10T08:14:55.749Z,3.69
2023-03-10T08:20:02.279Z,3.75
2023-03-10T08:25:07.051Z,3.72
2023-03-10T08:30:11.412Z,3.70
2023-03-10T08:35:14.870Z,3.65
2023-03-10T08:40:18.378Z,3.65
2023-03-10T08:45:24.826Z,3.74
2023-03-10T08:50:28.165Z,3.91
2023-03-10T08:55:31.829Z,4.03
2023-03-10T09:00:35.165Z,4.17
2023-03-10T09:05:38.830Z,4.36
2023-03-10T09:10:43.650Z,4.50
2023-03-10T09:16:11.217Z,4.65
2023-03-10T09:21:17.470Z,4.73
2023-03-10T09:26:21.735Z,4.79
2023-03-10T09:31:29.801Z,4.84
2023-03-10T09:36:33.443Z,4.89
2023-03-10T09:42:25.486Z,4.93
2023-03-10T09:48:28.845Z,4.91
2023-03-10T09:53:51.323Z,4.99
2023-03-10T09:59:05.485Z,5.13
2023-03-10T10:04:17.727Z,5.22
2023-03-10T10:09:28.295Z,5.28
2023-03-10T10:14:32.437Z,5.32
2023-03-10T10:19:37.566Z,5.39
2023-03-10T10:24:41.591Z,5.52
2023-03-10T10:29:47.202Z,5.69
2023-03-10T10:34:50.673Z,5.91
2023-03-10T10:39:58.365Z,6.06
2023-03-10T10:45:23.500Z,6.20
2023-03-10T10:50:32.618Z,6.38
2023-03-10T10:55:35.988Z,6.61
2023-03-10T11:00:40.390Z,6.87
2023-03-10T11:05:43.821Z,7.10
2023-03-10T11:10:55.266Z,7.23
2023-03-10T11:16:06.976Z,7.33
2023-03-10T11:21:19.792Z,7.50
2023-03-10T11:26:26.082Z,7.76
2023-03-10T11:31:52.639Z,8.04
2023-03-10T11:37:21.914Z,8.37
2023-03-10T11:42:39.243Z,8.56
2023-03-10T11:48:01.094Z,8.71
2023-03-10T11:53:13.594Z,8.95
2023-03-10T11:58:28.633Z,9.21
2023-03-10T12:04:00.159Z,9.54
2023-03-10T12:09:06.093Z,9.80
2023-03-10T12:14:14.436Z,10.00
2023-03-10T12:19:17.559Z,10.12
2023-03-10T12:24:44.584Z,10.25
2023-03-10T12:29:47.839Z,10.40
2023-03-10T12:35:29.249Z,10.49
2023-03-10T12:40:52.136Z,10.61
2023-03-10T12:45:58.817Z,10.77
2023-03-10T12:51:09.831Z,10.98
2023-03-10T12:56:12.936Z,11.22
2023-03-10T13:01:23.074Z,11.49
2023-03-10T13:06:40.743Z,11.73
2023-03-10T13:12:06.605Z,11.93
2023-03-10T13:17:27.446Z,11.99
2023-03-10T13:22:30.710Z,11.96
2023-03-10T13:27:35.460Z,11.99
2023-03-10T13:32:39.159Z,12.04
2023-03-10T13:37:42.607Z,12.04
2023-03-10T13:42:47.951Z,12.05
2023-03-10T13:47:52.077Z,12.06
2023-03-10T13:52:59.817Z,12.07
2023-03-10T13:58:03.713Z,12.08
2023-03-10T14:03:08.404Z,12.16
2023-03-10T14:08:20.980Z,12.24
2023-03-10T14:13:42.343Z,12.32
2023-03-10T14:18:45.692Z,12.34
2023-03-10T14:23:48.868Z,12.33
2023-03-10T14:28:52.144Z,12.31
2023-03-10T14:33:55.377Z,12.29
2023-03-10T14:38:58.579Z,12.32
2023-03-10T14:44:02.615Z,12.40
2023-03-10T14:49:11.250Z,12.48
2023-03-10T14:54:18.995Z,12.54
2023-03-10T14:59:22.294Z,12.59
2023-03-10T15:04:25.424Z,12.58
2023-03-10T15:09:29.264Z,12.55
2023-03-10T15:14:33.279Z,12.52
2023-03-10T15:19:36.403Z,12.46
2023-03-10T15:24:39.718Z,12.39
2023-03-10T15:29:43.006Z,12.33
2023-03-10T15:34:46.735Z,12.26
2023-03-10T15:39:49.888Z,12.16
2023-03-10T15:44:53.418Z,12.08
2023-03-10T15:49:57.227Z,12.07
2023-03-10T15:55:00.766Z,12.10
2023-03-10T16:00:04.680Z,12.10
2023-03-10T16:05:08.720Z,12.08
2023-03-10T16:10:15.070Z,12.02
2023-03-10T16:15:18.632Z,11.93
2023-03-10T16:20:21.753Z,11.82
2023-03-10T16:25:24.836Z,11.68
2023-03-10T16:30:28.153Z,11.60
2023-03-10T16:35:31.704Z,11.59
2023-03-10T16:40:35.028Z,11.58
2023-03-10T16:45:38.295Z,11.50
2023-03-10T16:50:41.720Z,11.39
2023-03-10T16:55:45.044Z,11.21
2023-03-10T17:00:48.702Z,10.99
2023-03-10T17:05:54.611Z,10.80
2023-03-10T17:11:00.445Z,10.67
2023-03-10T17:16:23.602Z,10.59
2023-03-10T17:21:29.520Z,10.54
2023-03-10T17:26:32.906Z,10.43
2023-03-10T17:31:37.094Z,10.28
2023-03-10T17:36:40.572Z,10.13
2023-03-10T17:41:43.984Z,10.00
2023-03-10T17:46:47.719Z,9.88
2023-03-10T17:51:51.582Z,9.76
2023-03-10T17:56:55.043Z,9.58
2023-03-10T18:01:58.393Z,9.42
2023-03-10T18:07:01.502Z,9.28
2023-03-10T18:12:04.969Z,9.12
2023-03-10T18:17:08.448Z,9.00
2023-03-10T18:22:11.608Z,8.94
2023-03-10T18:27:14.897Z,8.82
2023-03-10T18:32:19.083Z,8.73
2023-03-10T18:37:22.549Z,8.59
2023-03-10T18:42:27.684Z,8.48
2023-03-10T18:47:51.261Z,8.44
2023-03-10T18:52:54.726Z,8.45
2023-03-10T18:57:58.257Z,8.42
2023-03-10T19:03:02.037Z,8.33
2023-03-10T19:08:05.735Z,8.23
2023-03-10T19:13:09.066Z,8.22
2023-03-10T19:18:12.422Z,8.29
2023-03-10T19:23:58.633Z,8.40
2023-03-10T19:29:07.897Z,8.38
2023-03-10T19:34:12.226Z,8.23
2023-03-10T19:39:15.679Z,8.11
2023-03-10T19:44:18.979Z,8.00
2023-03-10T19:49:24.474Z,7.97
2023-03-10T19:54:28.193Z,8.03
2023-03-10T19:59:31.477Z,8.06
2023-03-10T20:04:35.600Z,8.12
2023-03-10T20:09:38.725Z,8.15
2023-03-10T20:14:41.873Z,8.15
2023-03-10T20:19:45.170Z,8.22
2023-03-10T20:24:48.402Z,8.36
2023-03-10T20:29:52.083Z,8.39
2023-03-10T20:34:55.411Z,8.38
2023-03-10T20:39:58.812Z,8.36
2023-03-10T20:45:06.181Z,8.32
2023-03-10T20:50:12.802Z,8.26
2023-03-10T20:55:23.133Z,8.23
2023-03-10T21:00:28.921Z,8.23
2023-03-10T21:05:32.105Z,8.23
2023-03-10T21:10:35.378Z,8.27
2023-03-10T21:15:40.082Z,8.31
2023-03-10T21:20:43.383Z,8.38
2023-03-10T21:25:46.550Z,8.44
2023-03-10T21:30:49.732Z,8.51
2023-03-10T21:35:53.328Z,8.50
2023-03-10T21:40:56.863Z,8.43
2023-03-10T21:46:01.031Z,8.40
2023-03-10T21:51:04.685Z,8.45
2023-03-10T21:56:18.006Z,8.45
2023-03-10T22:01:22.532Z,8.47
2023-03-10T22:06:25.765Z,8.50
2023-03-10T22:11:31.794Z,8.45
2023-03-10T22:16:37.856Z,8.42
2023-03-10T22:21:41.062Z,8.40
2023-03-10T22:26:44.321Z,8.45
2023-03-10T22:31:48.048Z,8.51
2023-03-10T22:36:51.288Z,8.48
2023-03-10T22:41:54.728Z,8.47
2023-03-10T22:46:57.978Z,8.42
2023-03-10T22:52:02.788Z,8.38
2023-03-10T22:57:08.979Z,8.40
2023-03-10T23:02:12.480Z,8.47
2023-03-10T23:07:15.747Z,8.50
2023-03-10T23:12:19.011Z,8.47
2023-03-10T23:17:22.064Z,8.42
2023-03-10T23:22:27.284Z,8.44
2023-03-10T23:27:34.013Z,8.50
2023-03-10T23:32:41.272Z,8.57
2023-03-10T23:37:44.878Z,8.61
2023-03-10T23:42:48.786Z,8.62
2023-03-10T23:47:52.717Z,8.62
2023-03-10T23:52:56.551Z,8.61
2023-03-10T23:58:00.338Z,8.66
